sensor_id;sensor_type;location;lat;lon;timestamp;P1;durP1;ratioP1;P2;durP2;ratioP2
6288;SDS011;3177;49.880;8.836;2022-07-23T00:01:18;4.88;;;4.07;;
6288;SDS011;3177;49.880;8.836;2022-07-23T00:03:45;4.15;;;3.75;;
6288;SDS011;3177;49.880;8.836;2022-07-23T00:06:13;5.00;;;4.05;;
6288;SDS011;3177;49.880;8.836;2022-07-23T00:08:41;3.75;;;3.35;;
6288;SDS011;3177;49.880;8.836;2022-07-23T00:11:08;4.22;;;3.83;;
6288;SDS011;3177;49.880;8.836;2022-07-23T00:13:35;4.18;;;3.20;;
6288;SDS011;3177;49.880;8.836;2022-07-23T00:16:02;5.28;;;4.10;;
6288;SDS011;3177;49.880;8.836;2022-07-23T00:18:29;5.05;;;3.88;;
6288;SDS011;3177;49.880;8.836;2022-07-23T00:20:57;4.53;;;3.88;;
6288;SDS011;3177;49.880;8.836;2022-07-23T00:23:25;4.63;;;4.18;;
6288;SDS011;3177;49.880;8.836;2022-07-23T00:25:54;6.20;;;4.18;;
6288;SDS011;3177;49.880;8.836;2022-07-23T00:28:21;4.75;;;3.55;;
6288;SDS011;3177;49.880;8.836;2022-07-23T00:30:48;5.30;;;3.80;;
6288;SDS011;3177;49.880;8.836;2022-07-23T00:33:15;3.97;;;3.67;;
6288;SDS011;3177;49.880;8.836;2022-07-23T00:35:42;6.28;;;4.07;;
6288;SDS011;3177;49.880;8.836;2022-07-23T00:38:10;3.92;;;3.53;;
6288;SDS011;3177;49.880;8.836;2022-07-23T00:40:39;5.22;;;3.90;;
6288;SDS011;3177;49.880;8.836;2022-07-23T00:43:06;4.20;;;3.70;;
6288;SDS011;3177;49.880;8.836;2022-07-23T00:45:33;6.13;;;3.63;;
6288;SDS011;3177;49.880;8.836;2022-07-23T00:48:00;3.85;;;3.55;;
6288;SDS011;3177;49.880;8.836;2022-07-23T00:50:28;5.07;;;3.65;;
6288;SDS011;3177;49.880;8.836;2022-07-23T00:52:55;4.78;;;3.70;;
6288;SDS011;3177;49.880;8.836;2022-07-23T00:55:22;5.53;;;3.90;;
6288;SDS011;3177;49.880;8.836;2022-07-23T00:57:50;4.40;;;4.00;;
6288;SDS011;3177;49.880;8.836;2022-07-23T01:00:19;4.28;;;3.78;;
6288;SDS011;3177;49.880;8.836;2022-07-23T01:02:46;4.38;;;3.70;;
6288;SDS011;3177;49.880;8.836;2022-07-23T01:05:14;5.25;;;4.15;;
6288;SDS011;3177;49.880;8.836;2022-07-23T01:07:42;4.32;;;3.75;;
6288;SDS011;3177;49.880;8.836;2022-07-23T01:10:10;4.55;;;4.00;;
6288;SDS011;3177;49.880;8.836;2022-07-23T01:12:52;5.32;;;4.28;;
6288;SDS011;3177;49.880;8.836;2022-07-23T01:15:20;4.75;;;4.10;;
6288;SDS011;3177;49.880;8.836;2022-07-23T01:17:47;5.53;;;4.45;;
6288;SDS011;3177;49.880;8.836;2022-07-23T01:20:14;4.47;;;3.72;;
6288;SDS011;3177;49.880;8.836;2022-07-23T01:22:42;5.10;;;4.22;;
6288;SDS011;3177;49.880;8.836;2022-07-23T01:25:10;4.10;;;3.70;;
6288;SDS011;3177;49.880;8.836;2022-07-23T01:27:37;4.50;;;4.10;;
6288;SDS011;3177;49.880;8.836;2022-07-23T01:30:04;4.55;;;4.13;;
6288;SDS011;3177;49.880;8.836;2022-07-23T01:32:31;6.45;;;4.68;;
6288;SDS011;3177;49.880;8.836;2022-07-23T01:34:58;4.43;;;3.95;;
6288;SDS011;3177;49.880;8.836;2022-07-23T01:37:25;6.95;;;4.10;;
6288;SDS011;3177;49.880;8.836;2022-07-23T01:39:54;4.90;;;3.92;;
6288;SDS011;3177;49.880;8.836;2022-07-23T01:42:21;5.18;;;3.90;;
6288;SDS011;3177;49.880;8.836;2022-07-23T01:44:48;4.35;;;3.83;;
6288;SDS011;3177;49.880;8.836;2022-07-23T01:47:16;4.57;;;4.18;;
6288;SDS011;3177;49.880;8.836;2022-07-23T01:49:43;6.68;;;4.50;;
6288;SDS011;3177;49.880;8.836;2022-07-23T01:52:10;5.07;;;4.25;;
6288;SDS011;3177;49.880;8.836;2022-07-23T01:54:37;4.68;;;4.28;;
6288;SDS011;3177;49.880;8.836;2022-07-23T01:57:06;6.15;;;4.22;;
6288;SDS011;3177;49.880;8.836;2022-07-23T01:59:33;4.65;;;4.22;;
6288;SDS011;3177;49.880;8.836;2022-07-23T02:02:00;4.70;;;4.22;;
6288;SDS011;3177;49.880;8.836;2022-07-23T02:04:28;4.93;;;4.05;;
6288;SDS011;3177;49.880;8.836;2022-07-23T02:06:55;4.95;;;4.55;;
6288;SDS011;3177;49.880;8.836;2022-07-23T02:09:22;5.03;;;3.90;;
6288;SDS011;3177;49.880;8.836;2022-07-23T02:11:52;6.00;;;4.00;;
6288;SDS011;3177;49.880;8.836;2022-07-23T02:14:21;4.40;;;3.97;;
6288;SDS011;3177;49.880;8.836;2022-07-23T02:16:48;4.57;;;4.03;;
6288;SDS011;3177;49.880;8.836;2022-07-23T02:19:15;5.35;;;4.00;;
6288;SDS011;3177;49.880;8.836;2022-07-23T02:21:42;4.10;;;3.70;;
6288;SDS011;3177;49.880;8.836;2022-07-23T02:24:09;4.50;;;4.10;;
6288;SDS011;3177;49.880;8.836;2022-07-23T02:26:37;6.30;;;4.10;;
6288;SDS011;3177;49.880;8.836;2022-07-23T02:29:04;4.65;;;4.25;;
6288;SDS011;3177;49.880;8.836;2022-07-23T02:31:32;4.47;;;4.05;;
6288;SDS011;3177;49.880;8.836;2022-07-23T02:34:00;4.88;;;4.18;;
6288;SDS011;3177;49.880;8.836;2022-07-23T02:36:27;4.57;;;4.18;;
6288;SDS011;3177;49.880;8.836;2022-07-23T02:38:54;6.97;;;4.63;;
6288;SDS011;3177;49.880;8.836;2022-07-23T02:41:21;5.22;;;4.70;;
6288;SDS011;3177;49.880;8.836;2022-07-23T02:43:49;4.88;;;4.35;;
6288;SDS011;3177;49.880;8.836;2022-07-23T02:46:16;4.80;;;4.18;;
6288;SDS011;3177;49.880;8.836;2022-07-23T02:48:44;5.00;;;4.25;;
6288;SDS011;3177;49.880;8.836;2022-07-23T02:51:11;5.70;;;5.10;;
6288;SDS011;3177;49.880;8.836;2022-07-23T02:53:38;5.65;;;4.85;;
6288;SDS011;3177;49.880;8.836;2022-07-23T02:56:05;7.90;;;5.13;;
6288;SDS011;3177;49.880;8.836;2022-07-23T02:58:32;6.50;;;4.55;;
6288;SDS011;3177;49.880;8.836;2022-07-23T03:00:59;5.20;;;4.68;;
6288;SDS011;3177;49.880;8.836;2022-07-23T03:03:26;6.07;;;4.88;;
6288;SDS011;3177;49.880;8.836;2022-07-23T03:05:55;6.10;;;5.13;;
6288;SDS011;3177;49.880;8.836;2022-07-23T03:08:22;6.68;;;5.05;;
6288;SDS011;3177;49.880;8.836;2022-07-23T03:10:49;7.47;;;4.57;;
6288;SDS011;3177;49.880;8.836;2022-07-23T03:13:16;5.85;;;5.10;;
6288;SDS011;3177;49.880;8.836;2022-07-23T03:15:43;5.97;;;5.38;;
6288;SDS011;3177;49.880;8.836;2022-07-23T03:18:10;6.80;;;4.60;;
6288;SDS011;3177;49.880;8.836;2022-07-23T03:20:37;7.15;;;5.60;;
6288;SDS011;3177;49.880;8.836;2022-07-23T03:23:05;7.40;;;5.40;;
6288;SDS011;3177;49.880;8.836;2022-07-23T03:25:32;5.93;;;5.32;;
6288;SDS011;3177;49.880;8.836;2022-07-23T03:27:59;7.07;;;5.72;;
6288;SDS011;3177;49.880;8.836;2022-07-23T03:30:26;6.15;;;5.30;;
6288;SDS011;3177;49.880;8.836;2022-07-23T03:32:54;7.07;;;5.40;;
6288;SDS011;3177;49.880;8.836;2022-07-23T03:35:21;7.95;;;5.25;;
6288;SDS011;3177;49.880;8.836;2022-07-23T03:37:48;6.68;;;5.18;;
6288;SDS011;3177;49.880;8.836;2022-07-23T03:40:17;5.53;;;5.03;;
6288;SDS011;3177;49.880;8.836;2022-07-23T03:42:44;6.30;;;5.53;;
6288;SDS011;3177;49.880;8.836;2022-07-23T03:45:11;6.28;;;5.25;;
6288;SDS011;3177;49.880;8.836;2022-07-23T03:47:39;5.47;;;4.97;;
6288;SDS011;3177;49.880;8.836;2022-07-23T03:50:06;5.57;;;4.95;;
6288;SDS011;3177;49.880;8.836;2022-07-23T03:52:33;6.20;;;4.68;;
6288;SDS011;3177;49.880;8.836;2022-07-23T03:55:00;6.00;;;5.28;;
6288;SDS011;3177;49.880;8.836;2022-07-23T03:57:29;7.40;;;5.03;;
6288;SDS011;3177;49.880;8.836;2022-07-23T03:59:56;10.65;;;5.40;;
6288;SDS011;3177;49.880;8.836;2022-07-23T04:02:23;6.03;;;5.43;;
6288;SDS011;3177;49.880;8.836;2022-07-23T04:04:51;6.50;;;5.28;;
6288;SDS011;3177;49.880;8.836;2022-07-23T04:07:18;6.35;;;5.63;;
6288;SDS011;3177;49.880;8.836;2022-07-23T04:09:46;8.77;;;6.43;;
6288;SDS011;3177;49.880;8.836;2022-07-23T04:12:13;6.35;;;5.70;;
6288;SDS011;3177;49.880;8.836;2022-07-23T04:14:42;6.57;;;5.15;;
6288;SDS011;3177;49.880;8.836;2022-07-23T04:17:09;7.07;;;5.60;;
6288;SDS011;3177;49.880;8.836;2022-07-23T04:19:36;6.68;;;5.50;;
6288;SDS011;3177;49.880;8.836;2022-07-23T04:22:05;7.72;;;5.47;;
6288;SDS011;3177;49.880;8.836;2022-07-23T04:24:32;7.20;;;5.60;;
6288;SDS011;3177;49.880;8.836;2022-07-23T04:26:59;7.75;;;5.22;;
6288;SDS011;3177;49.880;8.836;2022-07-23T04:29:26;6.45;;;5.22;;
6288;SDS011;3177;49.880;8.836;2022-07-23T04:31:55;6.30;;;5.45;;
6288;SDS011;3177;49.880;8.836;2022-07-23T04:34:22;7.65;;;6.47;;
6288;SDS011;3177;49.880;8.836;2022-07-23T04:36:51;6.38;;;5.32;;
6288;SDS011;3177;49.880;8.836;2022-07-23T04:39:18;9.05;;;5.80;;
6288;SDS011;3177;49.880;8.836;2022-07-23T04:41:45;6.30;;;5.22;;
6288;SDS011;3177;49.880;8.836;2022-07-23T04:44:12;5.95;;;5.20;;
6288;SDS011;3177;49.880;8.836;2022-07-23T04:46:39;6.60;;;5.57;;
6288;SDS011;3177;49.880;8.836;2022-07-23T04:49:08;8.85;;;5.28;;
6288;SDS011;3177;49.880;8.836;2022-07-23T04:51:35;6.05;;;5.28;;
6288;SDS011;3177;49.880;8.836;2022-07-23T04:54:02;6.97;;;5.88;;
6288;SDS011;3177;49.880;8.836;2022-07-23T04:56:29;7.07;;;5.30;;
6288;SDS011;3177;49.880;8.836;2022-07-23T04:58:56;7.40;;;5.93;;
6288;SDS011;3177;49.880;8.836;2022-07-23T05:01:23;6.43;;;5.47;;
6288;SDS011;3177;49.880;8.836;2022-07-23T05:03:50;6.45;;;5.53;;
6288;SDS011;3177;49.880;8.836;2022-07-23T05:06:19;6.55;;;5.85;;
6288;SDS011;3177;49.880;8.836;2022-07-23T05:08:46;7.53;;;6.13;;
6288;SDS011;3177;49.880;8.836;2022-07-23T05:11:13;9.40;;;5.93;;
6288;SDS011;3177;49.880;8.836;2022-07-23T05:13:40;6.05;;;5.30;;
6288;SDS011;3177;49.880;8.836;2022-07-23T05:16:07;6.55;;;5.38;;
6288;SDS011;3177;49.880;8.836;2022-07-23T05:18:34;6.22;;;5.55;;
6288;SDS011;3177;49.880;8.836;2022-07-23T05:21:01;6.78;;;6.07;;
6288;SDS011;3177;49.880;8.836;2022-07-23T05:23:30;8.45;;;5.60;;
6288;SDS011;3177;49.880;8.836;2022-07-23T05:25:57;6.55;;;5.50;;
6288;SDS011;3177;49.880;8.836;2022-07-23T05:28:24;7.05;;;5.78;;
6288;SDS011;3177;49.880;8.836;2022-07-23T05:30:51;7.30;;;5.90;;
6288;SDS011;3177;49.880;8.836;2022-07-23T05:33:18;7.18;;;5.57;;
6288;SDS011;3177;49.880;8.836;2022-07-23T05:35:46;8.15;;;6.28;;
6288;SDS011;3177;49.880;8.836;2022-07-23T05:38:13;5.90;;;5.30;;
6288;SDS011;3177;49.880;8.836;2022-07-23T05:40:42;6.88;;;6.00;;
6288;SDS011;3177;49.880;8.836;2022-07-23T05:43:09;7.78;;;5.90;;
6288;SDS011;3177;49.880;8.836;2022-07-23T05:45:36;6.38;;;5.55;;
6288;SDS011;3177;49.880;8.836;2022-07-23T05:48:03;5.75;;;5.22;;
6288;SDS011;3177;49.880;8.836;2022-07-23T05:50:31;7.38;;;5.55;;
6288;SDS011;3177;49.880;8.836;2022-07-23T05:52:58;6.55;;;5.50;;
6288;SDS011;3177;49.880;8.836;2022-07-23T05:55:25;5.90;;;5.30;;
6288;SDS011;3177;49.880;8.836;2022-07-23T05:57:55;6.07;;;4.82;;
6288;SDS011;3177;49.880;8.836;2022-07-23T06:00:22;6.82;;;5.63;;
6288;SDS011;3177;49.880;8.836;2022-07-23T06:02:49;6.93;;;6.05;;
6288;SDS011;3177;49.880;8.836;2022-07-23T06:05:17;6.32;;;5.72;;
6288;SDS011;3177;49.880;8.836;2022-07-23T06:07:44;8.85;;;5.43;;
6288;SDS011;3177;49.880;8.836;2022-07-23T06:10:11;6.97;;;5.53;;
6288;SDS011;3177;49.880;8.836;2022-07-23T06:12:38;6.25;;;5.65;;
6288;SDS011;3177;49.880;8.836;2022-07-23T06:15:08;6.93;;;5.55;;
6288;SDS011;3177;49.880;8.836;2022-07-23T06:17:35;6.70;;;5.32;;
6288;SDS011;3177;49.880;8.836;2022-07-23T06:20:04;7.72;;;6.22;;
6288;SDS011;3177;49.880;8.836;2022-07-23T06:22:31;7.43;;;5.80;;
6288;SDS011;3177;49.880;8.836;2022-07-23T06:24:58;8.45;;;6.10;;
6288;SDS011;3177;49.880;8.836;2022-07-23T06:27:25;6.82;;;6.13;;
6288;SDS011;3177;49.880;8.836;2022-07-23T06:29:52;7.45;;;5.95;;
6288;SDS011;3177;49.880;8.836;2022-07-23T06:32:21;8.00;;;5.53;;
6288;SDS011;3177;49.880;8.836;2022-07-23T06:34:48;7.15;;;5.15;;
6288;SDS011;3177;49.880;8.836;2022-07-23T06:37:15;7.30;;;6.40;;
6288;SDS011;3177;49.880;8.836;2022-07-23T06:39:42;6.60;;;5.90;;
6288;SDS011;3177;49.880;8.836;2022-07-23T06:42:09;8.77;;;6.00;;
6288;SDS011;3177;49.880;8.836;2022-07-23T06:44:37;7.53;;;5.28;;
6288;SDS011;3177;49.880;8.836;2022-07-23T06:47:04;6.18;;;5.45;;
6288;SDS011;3177;49.880;8.836;2022-07-23T06:49:33;6.93;;;6.10;;
6288;SDS011;3177;49.880;8.836;2022-07-23T06:52:00;7.72;;;5.78;;
6288;SDS011;3177;49.880;8.836;2022-07-23T06:54:27;9.40;;;6.05;;
6288;SDS011;3177;49.880;8.836;2022-07-23T06:56:54;7.93;;;5.45;;
6288;SDS011;3177;49.880;8.836;2022-07-23T06:59:21;6.30;;;5.57;;
6288;SDS011;3177;49.880;8.836;2022-07-23T07:01:48;6.70;;;5.88;;
6288;SDS011;3177;49.880;8.836;2022-07-23T07:04:15;7.43;;;5.47;;
6288;SDS011;3177;49.880;8.836;2022-07-23T07:06:44;6.32;;;5.40;;
6288;SDS011;3177;49.880;8.836;2022-07-23T07:09:11;5.75;;;5.25;;
6288;SDS011;3177;49.880;8.836;2022-07-23T07:11:38;7.03;;;5.70;;
6288;SDS011;3177;49.880;8.836;2022-07-23T07:14:05;6.13;;;5.32;;
6288;SDS011;3177;49.880;8.836;2022-07-23T07:16:32;8.30;;;5.53;;
6288;SDS011;3177;49.880;8.836;2022-07-23T07:18:59;9.00;;;5.22;;
6288;SDS011;3177;49.880;8.836;2022-07-23T07:21:26;6.32;;;5.40;;
6288;SDS011;3177;49.880;8.836;2022-07-23T07:23:54;5.07;;;4.57;;
6288;SDS011;3177;49.880;8.836;2022-07-23T07:26:21;6.85;;;4.72;;
6288;SDS011;3177;49.880;8.836;2022-07-23T07:28:48;6.28;;;5.50;;
6288;SDS011;3177;49.880;8.836;2022-07-23T07:31:15;5.95;;;5.30;;
6288;SDS011;3177;49.880;8.836;2022-07-23T07:33:43;5.50;;;4.90;;
6288;SDS011;3177;49.880;8.836;2022-07-23T07:36:10;6.03;;;5.13;;
6288;SDS011;3177;49.880;8.836;2022-07-23T07:38:37;6.32;;;4.57;;
6288;SDS011;3177;49.880;8.836;2022-07-23T07:41:05;6.38;;;4.93;;
6288;SDS011;3177;49.880;8.836;2022-07-23T07:43:35;6.45;;;4.88;;
6288;SDS011;3177;49.880;8.836;2022-07-23T07:46:02;7.40;;;4.85;;
6288;SDS011;3177;49.880;8.836;2022-07-23T07:48:29;7.22;;;5.05;;
6288;SDS011;3177;49.880;8.836;2022-07-23T07:50:56;5.78;;;5.00;;
6288;SDS011;3177;49.880;8.836;2022-07-23T07:53:23;5.82;;;4.75;;
6288;SDS011;3177;49.880;8.836;2022-07-23T07:55:50;5.47;;;4.97;;
6288;SDS011;3177;49.880;8.836;2022-07-23T07:58:18;5.30;;;4.80;;
6288;SDS011;3177;49.880;8.836;2022-07-23T08:00:45;6.38;;;4.90;;
6288;SDS011;3177;49.880;8.836;2022-07-23T08:03:12;6.35;;;4.30;;
6288;SDS011;3177;49.880;8.836;2022-07-23T08:05:40;5.70;;;4.47;;
6288;SDS011;3177;49.880;8.836;2022-07-23T08:08:07;5.97;;;4.25;;
6288;SDS011;3177;49.880;8.836;2022-07-23T08:10:39;6.90;;;4.90;;
6288;SDS011;3177;49.880;8.836;2022-07-23T08:13:07;6.80;;;5.00;;
6288;SDS011;3177;49.880;8.836;2022-07-23T08:15:35;6.20;;;4.60;;
6288;SDS011;3177;49.880;8.836;2022-07-23T08:18:02;6.75;;;4.40;;
6288;SDS011;3177;49.880;8.836;2022-07-23T08:20:29;6.90;;;4.60;;
6288;SDS011;3177;49.880;8.836;2022-07-23T08:22:57;6.95;;;4.32;;
6288;SDS011;3177;49.880;8.836;2022-07-23T08:25:25;5.80;;;3.92;;
6288;SDS011;3177;49.880;8.836;2022-07-23T08:27:53;6.22;;;4.22;;
6288;SDS011;3177;49.880;8.836;2022-07-23T08:30:23;5.38;;;4.78;;
6288;SDS011;3177;49.880;8.836;2022-07-23T08:32:52;5.20;;;4.13;;
6288;SDS011;3177;49.880;8.836;2022-07-23T08:35:22;5.78;;;3.55;;
6288;SDS011;3177;49.880;8.836;2022-07-23T08:37:49;5.85;;;4.35;;
6288;SDS011;3177;49.880;8.836;2022-07-23T08:40:16;7.18;;;4.43;;
6288;SDS011;3177;49.880;8.836;2022-07-23T08:42:44;5.00;;;4.55;;
6288;SDS011;3177;49.880;8.836;2022-07-23T08:45:12;5.03;;;3.85;;
6288;SDS011;3177;49.880;8.836;2022-07-23T08:47:39;8.20;;;4.43;;
6288;SDS011;3177;49.880;8.836;2022-07-23T08:50:08;4.50;;;3.90;;
6288;SDS011;3177;49.880;8.836;2022-07-23T08:52:36;4.45;;;3.70;;
6288;SDS011;3177;49.880;8.836;2022-07-23T08:55:03;4.90;;;4.40;;
6288;SDS011;3177;49.880;8.836;2022-07-23T08:57:30;8.30;;;4.20;;
6288;SDS011;3177;49.880;8.836;2022-07-23T08:59:57;4.35;;;3.75;;
6288;SDS011;3177;49.880;8.836;2022-07-23T09:02:24;4.88;;;3.67;;
6288;SDS011;3177;49.880;8.836;2022-07-23T09:04:51;4.40;;;4.00;;
6288;SDS011;3177;49.880;8.836;2022-07-23T09:07:20;4.22;;;3.83;;
6288;SDS011;3177;49.880;8.836;2022-07-23T09:09:48;4.85;;;3.95;;
6288;SDS011;3177;49.880;8.836;2022-07-23T09:12:30;4.28;;;3.75;;
6288;SDS011;3177;49.880;8.836;2022-07-23T09:14:57;4.38;;;3.97;;
6288;SDS011;3177;49.880;8.836;2022-07-23T09:17:29;4.63;;;4.22;;
6288;SDS011;3177;49.880;8.836;2022-07-23T09:20:10;4.70;;;3.80;;
6288;SDS011;3177;49.880;8.836;2022-07-23T09:22:39;4.07;;;3.67;;
6288;SDS011;3177;49.880;8.836;2022-07-23T09:25:08;5.80;;;3.63;;
6288;SDS011;3177;49.880;8.836;2022-07-23T09:27:45;6.85;;;4.00;;
6288;SDS011;3177;49.880;8.836;2022-07-23T09:30:13;4.13;;;3.78;;
6288;SDS011;3177;49.880;8.836;2022-07-23T09:32:40;5.68;;;4.80;;
6288;SDS011;3177;49.880;8.836;2022-07-23T09:35:07;5.00;;;4.00;;
6288;SDS011;3177;49.880;8.836;2022-07-23T09:37:34;5.68;;;3.88;;
6288;SDS011;3177;49.880;8.836;2022-07-23T09:40:07;4.43;;;4.03;;
6288;SDS011;3177;49.880;8.836;2022-07-23T09:42:34;4.20;;;3.88;;
6288;SDS011;3177;49.880;8.836;2022-07-23T09:45:01;4.82;;;4.10;;
6288;SDS011;3177;49.880;8.836;2022-07-23T09:47:29;4.80;;;3.80;;
6288;SDS011;3177;49.880;8.836;2022-07-23T09:49:57;4.25;;;3.85;;
6288;SDS011;3177;49.880;8.836;2022-07-23T09:52:26;4.65;;;4.22;;
6288;SDS011;3177;49.880;8.836;2022-07-23T09:54:57;7.00;;;3.80;;
6288;SDS011;3177;49.880;8.836;2022-07-23T09:57:26;6.78;;;4.47;;
6288;SDS011;3177;49.880;8.836;2022-07-23T09:59:53;4.07;;;3.67;;
6288;SDS011;3177;49.880;8.836;2022-07-23T10:02:24;4.75;;;4.13;;
6288;SDS011;3177;49.880;8.836;2022-07-23T10:04:52;6.63;;;4.10;;
6288;SDS011;3177;49.880;8.836;2022-07-23T10:07:20;4.28;;;3.97;;
6288;SDS011;3177;49.880;8.836;2022-07-23T10:09:48;3.95;;;3.65;;
6288;SDS011;3177;49.880;8.836;2022-07-23T10:12:17;4.15;;;3.85;;
6288;SDS011;3177;49.880;8.836;2022-07-23T10:15:04;4.30;;;3.75;;
6288;SDS011;3177;49.880;8.836;2022-07-23T10:17:32;3.95;;;3.58;;
6288;SDS011;3177;49.880;8.836;2022-07-23T10:19:59;5.88;;;4.18;;
6288;SDS011;3177;49.880;8.836;2022-07-23T10:22:26;4.20;;;3.80;;
6288;SDS011;3177;49.880;8.836;2022-07-23T10:24:58;3.95;;;3.63;;
6288;SDS011;3177;49.880;8.836;2022-07-23T10:30:15;4.28;;;3.88;;
6288;SDS011;3177;49.880;8.836;2022-07-23T10:32:45;4.13;;;3.83;;
6288;SDS011;3177;49.880;8.836;2022-07-23T10:35:17;3.95;;;3.65;;
6288;SDS011;3177;49.880;8.836;2022-07-23T10:37:46;3.78;;;3.47;;
6288;SDS011;3177;49.880;8.836;2022-07-23T10:40:15;4.63;;;3.60;;
6288;SDS011;3177;49.880;8.836;2022-07-23T10:42:42;5.25;;;4.10;;
6288;SDS011;3177;49.880;8.836;2022-07-23T10:45:24;4.60;;;3.88;;
6288;SDS011;3177;49.880;8.836;2022-07-23T10:47:51;5.22;;;4.13;;
6288;SDS011;3177;49.880;8.836;2022-07-23T10:50:19;4.28;;;3.50;;
6288;SDS011;3177;49.880;8.836;2022-07-23T10:55:42;4.20;;;3.80;;
6288;SDS011;3177;49.880;8.836;2022-07-23T10:58:09;4.75;;;3.97;;
6288;SDS011;3177;49.880;8.836;2022-07-23T11:00:38;5.40;;;3.95;;
6288;SDS011;3177;49.880;8.836;2022-07-23T11:03:05;4.43;;;3.80;;
6288;SDS011;3177;49.880;8.836;2022-07-23T11:05:52;4.30;;;3.90;;
6288;SDS011;3177;49.880;8.836;2022-07-23T11:08:20;4.03;;;3.72;;
6288;SDS011;3177;49.880;8.836;2022-07-23T11:10:49;4.22;;;3.78;;
6288;SDS011;3177;49.880;8.836;2022-07-23T11:16:11;4.63;;;3.50;;
6288;SDS011;3177;49.880;8.836;2022-07-23T11:18:52;4.20;;;3.80;;
6288;SDS011;3177;49.880;8.836;2022-07-23T11:24:05;3.88;;;3.45;;
6288;SDS011;3177;49.880;8.836;2022-07-23T11:29:43;3.83;;;3.42;;
6288;SDS011;3177;49.880;8.836;2022-07-23T11:32:31;4.38;;;3.38;;
6288;SDS011;3177;49.880;8.836;2022-07-23T11:35:00;3.90;;;3.60;;
6288;SDS011;3177;49.880;8.836;2022-07-23T11:37:29;4.47;;;4.00;;
6288;SDS011;3177;49.880;8.836;2022-07-23T11:40:00;3.58;;;3.28;;
6288;SDS011;3177;49.880;8.836;2022-07-23T11:42:27;4.07;;;3.72;;
6288;SDS011;3177;49.880;8.836;2022-07-23T11:44:54;4.25;;;3.55;;
6288;SDS011;3177;49.880;8.836;2022-07-23T11:47:22;3.60;;;3.30;;
6288;SDS011;3177;49.880;8.836;2022-07-23T11:49:54;4.03;;;3.67;;
6288;SDS011;3177;49.880;8.836;2022-07-23T11:52:22;3.80;;;3.42;;
6288;SDS011;3177;49.880;8.836;2022-07-23T11:54:50;4.28;;;3.65;;
6288;SDS011;3177;49.880;8.836;2022-07-23T11:57:17;4.75;;;3.22;;
6288;SDS011;3177;49.880;8.836;2022-07-23T11:59:46;4.38;;;3.95;;
6288;SDS011;3177;49.880;8.836;2022-07-23T12:02:13;5.15;;;3.40;;
6288;SDS011;3177;49.880;8.836;2022-07-23T12:04:41;3.90;;;3.60;;
6288;SDS011;3177;49.880;8.836;2022-07-23T12:07:26;3.80;;;3.50;;
6288;SDS011;3177;49.880;8.836;2022-07-23T12:09:53;3.85;;;3.53;;
6288;SDS011;3177;49.880;8.836;2022-07-23T12:12:21;6.85;;;4.18;;
6288;SDS011;3177;49.880;8.836;2022-07-23T12:14:49;5.40;;;3.90;;
6288;SDS011;3177;49.880;8.836;2022-07-23T12:17:16;4.63;;;4.05;;
6288;SDS011;3177;49.880;8.836;2022-07-23T12:19:43;3.85;;;3.47;;
6288;SDS011;3177;49.880;8.836;2022-07-23T12:22:11;3.78;;;3.47;;
6288;SDS011;3177;49.880;8.836;2022-07-23T12:24:56;5.55;;;4.03;;
6288;SDS011;3177;49.880;8.836;2022-07-23T12:27:24;4.65;;;4.25;;
6288;SDS011;3177;49.880;8.836;2022-07-23T12:29:52;3.90;;;3.60;;
6288;SDS011;3177;49.880;8.836;2022-07-23T12:32:19;4.10;;;3.70;;
6288;SDS011;3177;49.880;8.836;2022-07-23T12:34:48;4.43;;;4.00;;
6288;SDS011;3177;49.880;8.836;2022-07-23T12:37:28;5.80;;;3.80;;
6288;SDS011;3177;49.880;8.836;2022-07-23T12:39:57;3.75;;;3.42;;
6288;SDS011;3177;49.880;8.836;2022-07-23T12:42:24;3.92;;;3.53;;
6288;SDS011;3177;49.880;8.836;2022-07-23T12:45:04;4.60;;;3.80;;
6288;SDS011;3177;49.880;8.836;2022-07-23T12:53:01;4.85;;;4.20;;
6288;SDS011;3177;49.880;8.836;2022-07-23T12:55:29;4.03;;;3.70;;
6288;SDS011;3177;49.880;8.836;2022-07-23T12:58:02;3.80;;;3.50;;
6288;SDS011;3177;49.880;8.836;2022-07-23T13:00:30;5.97;;;3.78;;
6288;SDS011;3177;49.880;8.836;2022-07-23T13:02:57;4.78;;;3.72;;
6288;SDS011;3177;49.880;8.836;2022-07-23T13:05:24;4.65;;;3.72;;
6288;SDS011;3177;49.880;8.836;2022-07-23T13:07:51;6.03;;;4.05;;
6288;SDS011;3177;49.880;8.836;2022-07-23T13:10:18;4.75;;;3.83;;
6288;SDS011;3177;49.880;8.836;2022-07-23T13:12:46;4.20;;;3.80;;
6288;SDS011;3177;49.880;8.836;2022-07-23T13:15:13;4.32;;;3.88;;
6288;SDS011;3177;49.880;8.836;2022-07-23T13:17:40;4.05;;;3.72;;
6288;SDS011;3177;49.880;8.836;2022-07-23T13:20:09;4.13;;;3.72;;
6288;SDS011;3177;49.880;8.836;2022-07-23T13:22:36;4.53;;;4.03;;
6288;SDS011;3177;49.880;8.836;2022-07-23T13:25:04;3.97;;;3.40;;
6288;SDS011;3177;49.880;8.836;2022-07-23T13:27:31;4.00;;;3.70;;
6288;SDS011;3177;49.880;8.836;2022-07-23T13:29:59;4.68;;;3.90;;
6288;SDS011;3177;49.880;8.836;2022-07-23T13:32:27;4.32;;;3.92;;
6288;SDS011;3177;49.880;8.836;2022-07-23T13:34:54;5.88;;;4.00;;
6288;SDS011;3177;49.880;8.836;2022-07-23T13:37:21;4.30;;;3.90;;
6288;SDS011;3177;49.880;8.836;2022-07-23T13:39:48;4.55;;;4.15;;
6288;SDS011;3177;49.880;8.836;2022-07-23T13:42:15;3.97;;;3.58;;
6288;SDS011;3177;49.880;8.836;2022-07-23T13:44:42;4.47;;;3.80;;
6288;SDS011;3177;49.880;8.836;2022-07-23T13:47:11;4.80;;;3.35;;
6288;SDS011;3177;49.880;8.836;2022-07-23T13:49:38;3.97;;;3.58;;
6288;SDS011;3177;49.880;8.836;2022-07-23T13:52:05;5.82;;;4.00;;
6288;SDS011;3177;49.880;8.836;2022-07-23T13:54:32;4.40;;;4.00;;
6288;SDS011;3177;49.880;8.836;2022-07-23T13:56:59;4.40;;;4.00;;
6288;SDS011;3177;49.880;8.836;2022-07-23T13:59:26;3.97;;;3.67;;
6288;SDS011;3177;49.880;8.836;2022-07-23T14:01:53;5.13;;;4.05;;
6288;SDS011;3177;49.880;8.836;2022-07-23T14:04:22;4.47;;;4.00;;
6288;SDS011;3177;49.880;8.836;2022-07-23T14:06:49;3.95;;;3.65;;
6288;SDS011;3177;49.880;8.836;2022-07-23T14:09:16;4.60;;;4.20;;
6288;SDS011;3177;49.880;8.836;2022-07-23T14:11:43;7.65;;;4.32;;
6288;SDS011;3177;49.880;8.836;2022-07-23T14:14:10;4.20;;;3.80;;
6288;SDS011;3177;49.880;8.836;2022-07-23T14:16:37;4.25;;;3.92;;
6288;SDS011;3177;49.880;8.836;2022-07-23T14:19:04;4.20;;;3.72;;
6288;SDS011;3177;49.880;8.836;2022-07-23T14:21:32;3.90;;;3.60;;
6288;SDS011;3177;49.880;8.836;2022-07-23T14:23:59;4.07;;;3.70;;
6288;SDS011;3177;49.880;8.836;2022-07-23T14:26:27;4.15;;;3.85;;
6288;SDS011;3177;49.880;8.836;2022-07-23T14:28:54;4.00;;;3.42;;
6288;SDS011;3177;49.880;8.836;2022-07-23T14:31:21;4.13;;;3.67;;
6288;SDS011;3177;49.880;8.836;2022-07-23T14:33:48;4.93;;;3.80;;
6288;SDS011;3177;49.880;8.836;2022-07-23T14:36:16;4.03;;;3.63;;
6288;SDS011;3177;49.880;8.836;2022-07-23T14:38:44;3.85;;;3.55;;
6288;SDS011;3177;49.880;8.836;2022-07-23T14:41:11;3.92;;;3.50;;
6288;SDS011;3177;49.880;8.836;2022-07-23T14:43:38;4.10;;;3.70;;
6288;SDS011;3177;49.880;8.836;2022-07-23T14:46:06;4.55;;;3.72;;
6288;SDS011;3177;49.880;8.836;2022-07-23T14:48:33;4.45;;;3.65;;
6288;SDS011;3177;49.880;8.836;2022-07-23T14:51:00;4.05;;;3.75;;
6288;SDS011;3177;49.880;8.836;2022-07-23T14:53:27;4.55;;;3.88;;
6288;SDS011;3177;49.880;8.836;2022-07-23T14:55:56;4.18;;;3.78;;
6288;SDS011;3177;49.880;8.836;2022-07-23T14:58:23;4.05;;;3.75;;
6288;SDS011;3177;49.880;8.836;2022-07-23T15:00:51;3.50;;;3.20;;
6288;SDS011;3177;49.880;8.836;2022-07-23T15:03:19;3.97;;;3.65;;
6288;SDS011;3177;49.880;8.836;2022-07-23T15:05:47;4.07;;;3.63;;
6288;SDS011;3177;49.880;8.836;2022-07-23T15:08:14;3.90;;;3.50;;
6288;SDS011;3177;49.880;8.836;2022-07-23T15:10:41;4.40;;;3.90;;
6288;SDS011;3177;49.880;8.836;2022-07-23T15:13:09;5.38;;;3.85;;
6288;SDS011;3177;49.880;8.836;2022-07-23T15:15:37;4.50;;;4.10;;
6288;SDS011;3177;49.880;8.836;2022-07-23T15:18:06;3.80;;;3.42;;
6288;SDS011;3177;49.880;8.836;2022-07-23T15:20:33;3.70;;;3.40;;
6288;SDS011;3177;49.880;8.836;2022-07-23T15:23:02;3.85;;;3.55;;
6288;SDS011;3177;49.880;8.836;2022-07-23T15:25:29;3.92;;;3.63;;
6288;SDS011;3177;49.880;8.836;2022-07-23T15:27:57;4.40;;;3.50;;
6288;SDS011;3177;49.880;8.836;2022-07-23T15:30:25;3.90;;;3.60;;
6288;SDS011;3177;49.880;8.836;2022-07-23T15:32:52;4.25;;;3.85;;
6288;SDS011;3177;49.880;8.836;2022-07-23T15:35:20;4.90;;;3.88;;
6288;SDS011;3177;49.880;8.836;2022-07-23T15:37:47;3.70;;;3.40;;
6288;SDS011;3177;49.880;8.836;2022-07-23T15:40:14;3.55;;;3.25;;